Terminal Aerodrome Forecast
Issued by NWS

Home | Current Version | Previous Version | Text Only | Print | Product List | Glossary On
Versions: 1 2 3 4 5 6 7 8 9 10 11 12 13 14 15 16 17
000
FTUS43 KGRR 152335
TAFBTL
TAF
KBTL 152335Z 1600/1624 19006KT P6SM OVC035
     FM160300 20002KT 4SM BR OVC025
     FM160700 24002KT 2SM BR OVC007
     FM160900 24002KT 1/4SM FG VV001
     FM161200 01004KT 4SM BR OVC003
     FM161500 02005KT P6SM BKN007
     FM161900 01005KT P6SM SCT025=

USA.gov is the U.S. government's official web portal to all federal, state and local government web resources and services.